sensor_id;sensor_type;location;lat;lon;timestamp;temperature;humidity
2579;DHT22;1299;48.282;14.398;2023-03-26T00:01:32;6.80;99.90
2579;DHT22;1299;48.282;14.398;2023-03-26T00:04:02;6.80;99.90
2579;DHT22;1299;48.282;14.398;2023-03-26T00:06:33;6.90;99.90
2579;DHT22;1299;48.282;14.398;2023-03-26T00:09:05;7.00;99.90
2579;DHT22;1299;48.282;14.398;2023-03-26T00:11:33;7.00;99.90
2579;DHT22;1299;48.282;14.398;2023-03-26T00:14:02;7.10;99.90
2579;DHT22;1299;48.282;14.398;2023-03-26T00:16:31;7.10;99.90
2579;DHT22;1299;48.282;14.398;2023-03-26T00:18:59;7.10;99.90
2579;DHT22;1299;48.282;14.398;2023-03-26T00:21:29;7.20;99.90
2579;DHT22;1299;48.282;14.398;2023-03-26T00:23:58;7.00;99.90
2579;DHT22;1299;48.282;14.398;2023-03-26T00:26:26;7.20;99.90
2579;DHT22;1299;48.282;14.398;2023-03-26T00:28:54;7.30;99.90
2579;DHT22;1299;48.282;14.398;2023-03-26T00:31:23;7.30;99.90
2579;DHT22;1299;48.282;14.398;2023-03-26T00:33:52;7.30;99.90
2579;DHT22;1299;48.282;14.398;2023-03-26T00:36:21;7.30;99.90
2579;DHT22;1299;48.282;14.398;2023-03-26T00:38:50;7.30;99.90
2579;DHT22;1299;48.282;14.398;2023-03-26T00:41:19;7.30;99.90
2579;DHT22;1299;48.282;14.398;2023-03-26T00:43:52;7.40;99.90
2579;DHT22;1299;48.282;14.398;2023-03-26T00:46:22;7.40;99.90
2579;DHT22;1299;48.282;14.398;2023-03-26T00:48:50;7.30;99.90
2579;DHT22;1299;48.282;14.398;2023-03-26T00:51:19;7.40;99.90
2579;DHT22;1299;48.282;14.398;2023-03-26T00:53:48;7.50;99.90
2579;DHT22;1299;48.282;14.398;2023-03-26T00:56:16;7.40;99.90
2579;DHT22;1299;48.282;14.398;2023-03-26T00:58:43;7.30;99.90
2579;DHT22;1299;48.282;14.398;2023-03-26T01:01:15;7.30;99.90
2579;DHT22;1299;48.282;14.398;2023-03-26T01:03:45;7.30;99.90
2579;DHT22;1299;48.282;14.398;2023-03-26T01:06:17;7.30;99.90
2579;DHT22;1299;48.282;14.398;2023-03-26T01:08:53;6.70;99.90
2579;DHT22;1299;48.282;14.398;2023-03-26T01:11:27;6.20;99.90
2579;DHT22;1299;48.282;14.398;2023-03-26T01:13:58;6.30;99.90
2579;DHT22;1299;48.282;14.398;2023-03-26T01:16:28;6.70;99.90
2579;DHT22;1299;48.282;14.398;2023-03-26T01:18:58;6.90;99.90
2579;DHT22;1299;48.282;14.398;2023-03-26T01:21:27;6.70;99.90
2579;DHT22;1299;48.282;14.398;2023-03-26T01:23:59;7.00;99.90
2579;DHT22;1299;48.282;14.398;2023-03-26T01:26:44;7.10;99.90
2579;DHT22;1299;48.282;14.398;2023-03-26T01:29:20;7.20;99.90
2579;DHT22;1299;48.282;14.398;2023-03-26T01:31:55;7.30;99.90
2579;DHT22;1299;48.282;14.398;2023-03-26T01:34:36;7.40;99.90
2579;DHT22;1299;48.282;14.398;2023-03-26T01:37:12;7.20;99.90
2579;DHT22;1299;48.282;14.398;2023-03-26T01:39:49;7.30;99.90
2579;DHT22;1299;48.282;14.398;2023-03-26T01:42:23;7.20;99.90
2579;DHT22;1299;48.282;14.398;2023-03-26T01:44:56;7.10;99.90
2579;DHT22;1299;48.282;14.398;2023-03-26T01:47:26;7.30;99.90
2579;DHT22;1299;48.282;14.398;2023-03-26T01:49:53;7.10;99.90
2579;DHT22;1299;48.282;14.398;2023-03-26T01:52:22;7.30;99.90
2579;DHT22;1299;48.282;14.398;2023-03-26T01:54:53;7.30;99.90
2579;DHT22;1299;48.282;14.398;2023-03-26T01:57:32;7.50;99.90
2579;DHT22;1299;48.282;14.398;2023-03-26T02:00:10;7.60;99.90
2579;DHT22;1299;48.282;14.398;2023-03-26T02:03:00;7.60;99.90
2579;DHT22;1299;48.282;14.398;2023-03-26T02:05:33;7.60;99.90
2579;DHT22;1299;48.282;14.398;2023-03-26T02:08:07;7.70;99.90
2579;DHT22;1299;48.282;14.398;2023-03-26T02:10:41;7.70;99.90
2579;DHT22;1299;48.282;14.398;2023-03-26T02:13:11;7.40;99.90
2579;DHT22;1299;48.282;14.398;2023-03-26T02:15:39;7.30;99.90
2579;DHT22;1299;48.282;14.398;2023-03-26T02:18:06;7.20;99.90
2579;DHT22;1299;48.282;14.398;2023-03-26T02:20:35;7.40;99.90
2579;DHT22;1299;48.282;14.398;2023-03-26T02:23:03;7.50;99.90
2579;DHT22;1299;48.282;14.398;2023-03-26T02:25:31;7.40;99.90
2579;DHT22;1299;48.282;14.398;2023-03-26T02:28:01;7.60;99.90
2579;DHT22;1299;48.282;14.398;2023-03-26T02:30:30;7.80;99.90
2579;DHT22;1299;48.282;14.398;2023-03-26T02:32:58;7.90;99.90
2579;DHT22;1299;48.282;14.398;2023-03-26T02:35:25;7.90;99.90
2579;DHT22;1299;48.282;14.398;2023-03-26T02:37:53;7.90;99.90
2579;DHT22;1299;48.282;14.398;2023-03-26T02:40:20;8.00;99.90
2579;DHT22;1299;48.282;14.398;2023-03-26T02:42:47;8.00;99.90
2579;DHT22;1299;48.282;14.398;2023-03-26T02:45:16;8.00;99.90
2579;DHT22;1299;48.282;14.398;2023-03-26T02:47:44;8.10;99.90
2579;DHT22;1299;48.282;14.398;2023-03-26T02:50:11;8.10;99.90
2579;DHT22;1299;48.282;14.398;2023-03-26T02:52:39;8.20;99.90
2579;DHT22;1299;48.282;14.398;2023-03-26T02:55:08;8.00;99.90
2579;DHT22;1299;48.282;14.398;2023-03-26T02:57:35;8.10;99.90
2579;DHT22;1299;48.282;14.398;2023-03-26T03:00:03;8.30;99.90
2579;DHT22;1299;48.282;14.398;2023-03-26T03:02:40;8.10;99.90
2579;DHT22;1299;48.282;14.398;2023-03-26T03:05:09;8.40;99.90
2579;DHT22;1299;48.282;14.398;2023-03-26T03:07:36;8.50;99.90
2579;DHT22;1299;48.282;14.398;2023-03-26T03:10:04;8.50;99.90
2579;DHT22;1299;48.282;14.398;2023-03-26T03:12:33;8.20;99.90
2579;DHT22;1299;48.282;14.398;2023-03-26T03:15:01;8.50;99.90
2579;DHT22;1299;48.282;14.398;2023-03-26T03:17:28;8.50;99.90
2579;DHT22;1299;48.282;14.398;2023-03-26T03:19:57;8.70;99.90
2579;DHT22;1299;48.282;14.398;2023-03-26T03:22:24;8.70;99.90
2579;DHT22;1299;48.282;14.398;2023-03-26T03:24:51;8.70;99.90
2579;DHT22;1299;48.282;14.398;2023-03-26T03:27:22;8.70;99.90
2579;DHT22;1299;48.282;14.398;2023-03-26T03:29:50;8.80;99.90
2579;DHT22;1299;48.282;14.398;2023-03-26T03:32:21;9.00;99.90
2579;DHT22;1299;48.282;14.398;2023-03-26T03:34:48;9.10;99.90
2579;DHT22;1299;48.282;14.398;2023-03-26T03:37:18;9.20;99.90
2579;DHT22;1299;48.282;14.398;2023-03-26T03:39:46;9.20;99.90
2579;DHT22;1299;48.282;14.398;2023-03-26T03:42:13;9.20;99.90
2579;DHT22;1299;48.282;14.398;2023-03-26T03:44:40;9.30;99.90
2579;DHT22;1299;48.282;14.398;2023-03-26T03:47:07;9.30;99.90
2579;DHT22;1299;48.282;14.398;2023-03-26T03:49:35;9.30;99.90
2579;DHT22;1299;48.282;14.398;2023-03-26T03:52:02;9.40;99.90
2579;DHT22;1299;48.282;14.398;2023-03-26T03:54:32;9.50;99.90
2579;DHT22;1299;48.282;14.398;2023-03-26T03:56:59;9.50;99.90
2579;DHT22;1299;48.282;14.398;2023-03-26T03:59:28;9.60;99.90
2579;DHT22;1299;48.282;14.398;2023-03-26T04:01:55;9.70;99.90
2579;DHT22;1299;48.282;14.398;2023-03-26T04:04:22;9.70;99.90
2579;DHT22;1299;48.282;14.398;2023-03-26T04:06:51;9.70;99.90
2579;DHT22;1299;48.282;14.398;2023-03-26T04:09:18;9.80;99.90
2579;DHT22;1299;48.282;14.398;2023-03-26T04:11:47;9.80;99.90
2579;DHT22;1299;48.282;14.398;2023-03-26T04:14:15;9.70;99.90
2579;DHT22;1299;48.282;14.398;2023-03-26T04:16:42;9.70;99.90
2579;DHT22;1299;48.282;14.398;2023-03-26T04:19:10;9.80;99.90
2579;DHT22;1299;48.282;14.398;2023-03-26T04:21:39;9.80;99.90
2579;DHT22;1299;48.282;14.398;2023-03-26T04:24:08;9.80;99.90
2579;DHT22;1299;48.282;14.398;2023-03-26T04:26:35;9.90;99.90
2579;DHT22;1299;48.282;14.398;2023-03-26T04:29:05;10.00;99.90
2579;DHT22;1299;48.282;14.398;2023-03-26T04:31:37;10.00;99.90
2579;DHT22;1299;48.282;14.398;2023-03-26T04:34:07;10.00;99.90
2579;DHT22;1299;48.282;14.398;2023-03-26T04:36:39;10.10;99.90
2579;DHT22;1299;48.282;14.398;2023-03-26T04:39:09;10.00;99.90
2579;DHT22;1299;48.282;14.398;2023-03-26T04:41:38;9.80;99.90
2579;DHT22;1299;48.282;14.398;2023-03-26T04:44:06;9.90;99.90
2579;DHT22;1299;48.282;14.398;2023-03-26T04:46:34;9.50;99.90
2579;DHT22;1299;48.282;14.398;2023-03-26T04:49:01;9.30;99.90
2579;DHT22;1299;48.282;14.398;2023-03-26T04:51:34;9.50;99.90
2579;DHT22;1299;48.282;14.398;2023-03-26T04:54:04;9.50;99.90
2579;DHT22;1299;48.282;14.398;2023-03-26T04:56:39;9.50;99.90
2579;DHT22;1299;48.282;14.398;2023-03-26T04:59:12;9.50;99.90
2579;DHT22;1299;48.282;14.398;2023-03-26T05:01:41;9.50;99.90
2579;DHT22;1299;48.282;14.398;2023-03-26T05:04:11;9.50;99.90
2579;DHT22;1299;48.282;14.398;2023-03-26T05:06:39;9.50;99.90
2579;DHT22;1299;48.282;14.398;2023-03-26T05:09:08;9.30;99.90
2579;DHT22;1299;48.282;14.398;2023-03-26T05:11:36;9.30;99.90
2579;DHT22;1299;48.282;14.398;2023-03-26T05:14:03;9.30;99.90
2579;DHT22;1299;48.282;14.398;2023-03-26T05:16:32;9.30;99.90
2579;DHT22;1299;48.282;14.398;2023-03-26T05:19:00;9.30;99.90
2579;DHT22;1299;48.282;14.398;2023-03-26T05:21:27;9.50;99.90
2579;DHT22;1299;48.282;14.398;2023-03-26T05:23:54;9.50;99.90
2579;DHT22;1299;48.282;14.398;2023-03-26T05:26:21;9.50;99.90
2579;DHT22;1299;48.282;14.398;2023-03-26T05:28:50;9.60;99.90
2579;DHT22;1299;48.282;14.398;2023-03-26T05:31:17;9.70;99.90
2579;DHT22;1299;48.282;14.398;2023-03-26T05:33:48;9.80;99.90
2579;DHT22;1299;48.282;14.398;2023-03-26T05:36:16;10.00;99.90
2579;DHT22;1299;48.282;14.398;2023-03-26T05:38:44;10.20;99.90
2579;DHT22;1299;48.282;14.398;2023-03-26T05:41:15;10.20;99.90
2579;DHT22;1299;48.282;14.398;2023-03-26T05:43:43;10.40;99.90
2579;DHT22;1299;48.282;14.398;2023-03-26T05:46:13;10.50;99.90
2579;DHT22;1299;48.282;14.398;2023-03-26T05:48:40;10.80;99.90
2579;DHT22;1299;48.282;14.398;2023-03-26T05:51:09;10.80;99.90
2579;DHT22;1299;48.282;14.398;2023-03-26T05:53:37;11.00;99.90
2579;DHT22;1299;48.282;14.398;2023-03-26T05:56:06;11.30;99.90
2579;DHT22;1299;48.282;14.398;2023-03-26T05:58:34;11.30;99.90
2579;DHT22;1299;48.282;14.398;2023-03-26T06:01:04;11.50;99.90
2579;DHT22;1299;48.282;14.398;2023-03-26T06:03:38;12.10;99.90
2579;DHT22;1299;48.282;14.398;2023-03-26T06:06:06;13.00;99.90
2579;DHT22;1299;48.282;14.398;2023-03-26T06:08:35;13.30;99.90
2579;DHT22;1299;48.282;14.398;2023-03-26T06:11:04;14.00;99.90
2579;DHT22;1299;48.282;14.398;2023-03-26T06:13:33;15.50;99.90
2579;DHT22;1299;48.282;14.398;2023-03-26T06:16:00;16.50;99.90
2579;DHT22;1299;48.282;14.398;2023-03-26T06:18:27;17.40;99.90
2579;DHT22;1299;48.282;14.398;2023-03-26T06:20:55;18.90;95.90
2579;DHT22;1299;48.282;14.398;2023-03-26T06:23:22;19.30;91.70
2579;DHT22;1299;48.282;14.398;2023-03-26T06:25:51;20.10;90.50
2579;DHT22;1299;48.282;14.398;2023-03-26T06:28:18;20.30;90.90
2579;DHT22;1299;48.282;14.398;2023-03-26T06:30:46;19.70;91.20
2579;DHT22;1299;48.282;14.398;2023-03-26T06:33:13;20.50;88.20
2579;DHT22;1299;48.282;14.398;2023-03-26T06:35:40;22.40;89.30
2579;DHT22;1299;48.282;14.398;2023-03-26T06:38:09;22.80;84.50
2579;DHT22;1299;48.282;14.398;2023-03-26T06:40:36;23.10;79.40
2579;DHT22;1299;48.282;14.398;2023-03-26T06:45:33;24.10;74.10
2579;DHT22;1299;48.282;14.398;2023-03-26T06:48:00;24.30;77.50
2579;DHT22;1299;48.282;14.398;2023-03-26T06:50:28;24.80;74.30
2579;DHT22;1299;48.282;14.398;2023-03-26T06:52:57;25.40;73.20
2579;DHT22;1299;48.282;14.398;2023-03-26T06:55:24;25.40;71.80
2579;DHT22;1299;48.282;14.398;2023-03-26T06:57:53;24.30;72.20
2579;DHT22;1299;48.282;14.398;2023-03-26T07:00:23;25.40;69.70
2579;DHT22;1299;48.282;14.398;2023-03-26T07:02:51;24.60;72.20
2579;DHT22;1299;48.282;14.398;2023-03-26T07:05:18;24.10;71.60
2579;DHT22;1299;48.282;14.398;2023-03-26T07:07:46;23.10;74.70
2579;DHT22;1299;48.282;14.398;2023-03-26T07:10:14;21.60;74.60
2579;DHT22;1299;48.282;14.398;2023-03-26T07:12:42;20.30;78.70
2579;DHT22;1299;48.282;14.398;2023-03-26T07:15:09;20.00;79.10
2579;DHT22;1299;48.282;14.398;2023-03-26T07:17:38;19.40;79.90
2579;DHT22;1299;48.282;14.398;2023-03-26T07:20:07;18.70;82.00
2579;DHT22;1299;48.282;14.398;2023-03-26T07:22:35;18.70;82.30
2579;DHT22;1299;48.282;14.398;2023-03-26T07:25:03;18.20;81.80
2579;DHT22;1299;48.282;14.398;2023-03-26T07:27:36;17.80;84.10
2579;DHT22;1299;48.282;14.398;2023-03-26T07:30:13;17.90;84.00
2579;DHT22;1299;48.282;14.398;2023-03-26T07:32:48;17.60;86.00
2579;DHT22;1299;48.282;14.398;2023-03-26T07:35:23;17.10;84.20
2579;DHT22;1299;48.282;14.398;2023-03-26T07:38:03;16.70;86.10
2579;DHT22;1299;48.282;14.398;2023-03-26T07:40:45;16.50;86.50
2579;DHT22;1299;48.282;14.398;2023-03-26T07:43:28;16.20;87.50
2579;DHT22;1299;48.282;14.398;2023-03-26T07:45:56;16.10;87.70
2579;DHT22;1299;48.282;14.398;2023-03-26T07:48:28;16.30;88.90
2579;DHT22;1299;48.282;14.398;2023-03-26T07:50:59;16.40;87.90
2579;DHT22;1299;48.282;14.398;2023-03-26T07:53:27;16.00;88.00
2579;DHT22;1299;48.282;14.398;2023-03-26T07:56:03;15.80;89.40
2579;DHT22;1299;48.282;14.398;2023-03-26T07:58:43;15.80;89.70
2579;DHT22;1299;48.282;14.398;2023-03-26T08:01:15;15.20;88.90
2579;DHT22;1299;48.282;14.398;2023-03-26T08:04:06;15.50;90.10
2579;DHT22;1299;48.282;14.398;2023-03-26T08:06:44;15.70;90.10
2579;DHT22;1299;48.282;14.398;2023-03-26T08:09:17;15.70;90.20
2579;DHT22;1299;48.282;14.398;2023-03-26T08:11:53;15.70;90.00
2579;DHT22;1299;48.282;14.398;2023-03-26T08:14:30;16.00;89.50
2579;DHT22;1299;48.282;14.398;2023-03-26T08:17:06;16.10;90.20
2579;DHT22;1299;48.282;14.398;2023-03-26T08:19:54;16.20;90.40
2579;DHT22;1299;48.282;14.398;2023-03-26T08:22:29;15.50;90.00
2579;DHT22;1299;48.282;14.398;2023-03-26T08:25:23;15.90;91.30
2579;DHT22;1299;48.282;14.398;2023-03-26T08:28:07;15.50;89.80
2579;DHT22;1299;48.282;14.398;2023-03-26T08:30:36;15.60;91.70
2579;DHT22;1299;48.282;14.398;2023-03-26T08:33:11;15.70;91.30
2579;DHT22;1299;48.282;14.398;2023-03-26T08:35:41;15.60;90.10
2579;DHT22;1299;48.282;14.398;2023-03-26T08:38:08;15.40;89.50
2579;DHT22;1299;48.282;14.398;2023-03-26T08:41:13;15.30;90.10
2579;DHT22;1299;48.282;14.398;2023-03-26T08:50:30;14.70;89.30
2579;DHT22;1299;48.282;14.398;2023-03-26T08:53:39;14.90;90.10
2579;DHT22;1299;48.282;14.398;2023-03-26T08:56:18;14.30;90.10
2579;DHT22;1299;48.282;14.398;2023-03-26T08:59:19;14.10;90.70
2579;DHT22;1299;48.282;14.398;2023-03-26T09:02:09;14.60;90.70
2579;DHT22;1299;48.282;14.398;2023-03-26T09:05:18;14.80;90.40
2579;DHT22;1299;48.282;14.398;2023-03-26T09:08:07;14.80;86.50
2579;DHT22;1299;48.282;14.398;2023-03-26T09:10:50;14.90;88.30
2579;DHT22;1299;48.282;14.398;2023-03-26T09:13:40;15.10;88.40
2579;DHT22;1299;48.282;14.398;2023-03-26T09:22:36;15.90;89.60
2579;DHT22;1299;48.282;14.398;2023-03-26T09:34:30;16.30;87.10
2579;DHT22;1299;48.282;14.398;2023-03-26T09:37:16;16.40;86.10
2579;DHT22;1299;48.282;14.398;2023-03-26T09:40:00;16.50;85.10
2579;DHT22;1299;48.282;14.398;2023-03-26T09:42:40;16.30;83.80
2579;DHT22;1299;48.282;14.398;2023-03-26T09:45:36;16.20;86.30
2579;DHT22;1299;48.282;14.398;2023-03-26T09:48:22;16.30;83.70
2579;DHT22;1299;48.282;14.398;2023-03-26T09:54:03;16.90;84.20
2579;DHT22;1299;48.282;14.398;2023-03-26T09:56:41;16.90;83.30
2579;DHT22;1299;48.282;14.398;2023-03-26T09:59:29;16.80;82.70
2579;DHT22;1299;48.282;14.398;2023-03-26T10:02:10;16.70;82.50
2579;DHT22;1299;48.282;14.398;2023-03-26T10:05:04;17.00;82.10
2579;DHT22;1299;48.282;14.398;2023-03-26T10:07:52;16.60;78.30
2579;DHT22;1299;48.282;14.398;2023-03-26T10:10:28;16.80;81.00
2579;DHT22;1299;48.282;14.398;2023-03-26T10:12:59;16.30;78.50
2579;DHT22;1299;48.282;14.398;2023-03-26T10:15:33;16.00;80.60
2579;DHT22;1299;48.282;14.398;2023-03-26T10:18:16;16.30;81.10
2579;DHT22;1299;48.282;14.398;2023-03-26T10:20:54;15.90;78.90
2579;DHT22;1299;48.282;14.398;2023-03-26T10:23:37;15.20;79.00
2579;DHT22;1299;48.282;14.398;2023-03-26T10:26:27;15.00;79.30
2579;DHT22;1299;48.282;14.398;2023-03-26T10:29:24;15.70;84.90
2579;DHT22;1299;48.282;14.398;2023-03-26T10:32:05;15.80;80.10
2579;DHT22;1299;48.282;14.398;2023-03-26T10:35:00;15.70;80.50
2579;DHT22;1299;48.282;14.398;2023-03-26T10:37:39;15.70;78.80
2579;DHT22;1299;48.282;14.398;2023-03-26T10:40:19;15.60;80.80
2579;DHT22;1299;48.282;14.398;2023-03-26T10:43:25;15.80;80.10
2579;DHT22;1299;48.282;14.398;2023-03-26T10:46:17;15.60;80.80
2579;DHT22;1299;48.282;14.398;2023-03-26T10:51:57;15.70;80.20
2579;DHT22;1299;48.282;14.398;2023-03-26T10:54:32;15.70;80.50
2579;DHT22;1299;48.282;14.398;2023-03-26T10:57:06;16.00;82.00
2579;DHT22;1299;48.282;14.398;2023-03-26T10:59:37;16.10;81.90
2579;DHT22;1299;48.282;14.398;2023-03-26T11:02:25;16.20;80.60
2579;DHT22;1299;48.282;14.398;2023-03-26T11:05:09;15.30;80.00
2579;DHT22;1299;48.282;14.398;2023-03-26T11:07:53;15.10;80.70
2579;DHT22;1299;48.282;14.398;2023-03-26T11:10:29;15.20;80.90
2579;DHT22;1299;48.282;14.398;2023-03-26T11:13:06;14.90;81.20
2579;DHT22;1299;48.282;14.398;2023-03-26T11:15:39;14.60;82.40
2579;DHT22;1299;48.282;14.398;2023-03-26T11:18:14;15.00;81.70
2579;DHT22;1299;48.282;14.398;2023-03-26T11:20:47;15.30;82.00
2579;DHT22;1299;48.282;14.398;2023-03-26T11:23:33;15.60;83.30
2579;DHT22;1299;48.282;14.398;2023-03-26T11:26:11;15.80;83.30
2579;DHT22;1299;48.282;14.398;2023-03-26T11:28:59;16.10;82.50
2579;DHT22;1299;48.282;14.398;2023-03-26T11:31:38;16.40;81.90
2579;DHT22;1299;48.282;14.398;2023-03-26T11:34:12;16.50;80.90
2579;DHT22;1299;48.282;14.398;2023-03-26T11:36:46;16.50;80.70
2579;DHT22;1299;48.282;14.398;2023-03-26T11:39:22;16.50;79.60
2579;DHT22;1299;48.282;14.398;2023-03-26T11:41:56;16.30;80.90
2579;DHT22;1299;48.282;14.398;2023-03-26T11:44:29;16.50;80.40
2579;DHT22;1299;48.282;14.398;2023-03-26T11:47:02;16.60;80.80
2579;DHT22;1299;48.282;14.398;2023-03-26T11:49:31;16.60;81.70
2579;DHT22;1299;48.282;14.398;2023-03-26T11:52:00;16.60;81.30
2579;DHT22;1299;48.282;14.398;2023-03-26T11:54:30;16.60;81.10
2579;DHT22;1299;48.282;14.398;2023-03-26T11:57:02;16.40;80.90
2579;DHT22;1299;48.282;14.398;2023-03-26T11:59:39;16.40;80.30
2579;DHT22;1299;48.282;14.398;2023-03-26T12:02:18;16.50;81.10
2579;DHT22;1299;48.282;14.398;2023-03-26T12:04:51;16.50;79.20
2579;DHT22;1299;48.282;14.398;2023-03-26T12:07:22;16.20;81.00
2579;DHT22;1299;48.282;14.398;2023-03-26T12:10:00;16.00;81.10
2579;DHT22;1299;48.282;14.398;2023-03-26T12:12:31;16.00;82.20
2579;DHT22;1299;48.282;14.398;2023-03-26T12:15:01;15.70;84.60
2579;DHT22;1299;48.282;14.398;2023-03-26T12:17:33;15.70;82.70
2579;DHT22;1299;48.282;14.398;2023-03-26T12:20:01;15.80;82.60
2579;DHT22;1299;48.282;14.398;2023-03-26T12:22:49;15.80;83.70
2579;DHT22;1299;48.282;14.398;2023-03-26T12:25:20;15.70;83.60
2579;DHT22;1299;48.282;14.398;2023-03-26T12:27:49;15.70;82.90
2579;DHT22;1299;48.282;14.398;2023-03-26T12:30:22;15.80;82.30
2579;DHT22;1299;48.282;14.398;2023-03-26T12:32:51;15.80;82.80
2579;DHT22;1299;48.282;14.398;2023-03-26T12:35:24;15.80;83.50
2579;DHT22;1299;48.282;14.398;2023-03-26T12:37:53;16.00;82.60
2579;DHT22;1299;48.282;14.398;2023-03-26T12:40:30;16.00;83.30
2579;DHT22;1299;48.282;14.398;2023-03-26T12:43:01;16.10;84.00
2579;DHT22;1299;48.282;14.398;2023-03-26T12:45:31;16.00;82.80
2579;DHT22;1299;48.282;14.398;2023-03-26T12:48:06;16.00;83.60
2579;DHT22;1299;48.282;14.398;2023-03-26T12:50:43;15.70;82.80
2579;DHT22;1299;48.282;14.398;2023-03-26T12:53:32;15.80;82.00
2579;DHT22;1299;48.282;14.398;2023-03-26T12:56:11;15.60;81.10
2579;DHT22;1299;48.282;14.398;2023-03-26T12:59:08;15.80;81.60
2579;DHT22;1299;48.282;14.398;2023-03-26T13:01:57;15.80;81.20
2579;DHT22;1299;48.282;14.398;2023-03-26T13:04:47;15.50;81.70
2579;DHT22;1299;48.282;14.398;2023-03-26T13:07:24;15.40;82.90
2579;DHT22;1299;48.282;14.398;2023-03-26T13:10:22;15.30;83.10
2579;DHT22;1299;48.282;14.398;2023-03-26T13:12:59;15.20;83.20
2579;DHT22;1299;48.282;14.398;2023-03-26T13:15:36;15.20;83.90
2579;DHT22;1299;48.282;14.398;2023-03-26T13:18:14;15.30;85.20
2579;DHT22;1299;48.282;14.398;2023-03-26T13:20:49;15.30;84.70
2579;DHT22;1299;48.282;14.398;2023-03-26T13:23:32;15.20;84.50
2579;DHT22;1299;48.282;14.398;2023-03-26T13:26:11;15.00;84.80
2579;DHT22;1299;48.282;14.398;2023-03-26T13:28:49;14.90;85.20
2579;DHT22;1299;48.282;14.398;2023-03-26T13:31:23;14.70;84.70
2579;DHT22;1299;48.282;14.398;2023-03-26T13:33:59;14.80;86.10
2579;DHT22;1299;48.282;14.398;2023-03-26T13:36:38;14.70;86.10
2579;DHT22;1299;48.282;14.398;2023-03-26T13:39:22;14.50;87.00
2579;DHT22;1299;48.282;14.398;2023-03-26T13:42:14;14.70;87.50
2579;DHT22;1299;48.282;14.398;2023-03-26T13:44:53;14.50;86.80
2579;DHT22;1299;48.282;14.398;2023-03-26T13:47:28;14.50;88.40
2579;DHT22;1299;48.282;14.398;2023-03-26T13:50:00;14.30;89.70
2579;DHT22;1299;48.282;14.398;2023-03-26T13:52:35;14.30;90.90
2579;DHT22;1299;48.282;14.398;2023-03-26T13:55:18;14.30;91.50
2579;DHT22;1299;48.282;14.398;2023-03-26T13:57:53;14.00;91.80
2579;DHT22;1299;48.282;14.398;2023-03-26T14:00:29;13.70;94.60
2579;DHT22;1299;48.282;14.398;2023-03-26T14:03:02;13.60;96.70
2579;DHT22;1299;48.282;14.398;2023-03-26T14:05:37;13.50;99.90
2579;DHT22;1299;48.282;14.398;2023-03-26T14:08:11;13.40;99.90
2579;DHT22;1299;48.282;14.398;2023-03-26T14:10:46;13.60;99.90
2579;DHT22;1299;48.282;14.398;2023-03-26T14:13:18;13.70;99.90
2579;DHT22;1299;48.282;14.398;2023-03-26T14:15:53;13.60;99.90
2579;DHT22;1299;48.282;14.398;2023-03-26T14:18:30;13.70;99.90
2579;DHT22;1299;48.282;14.398;2023-03-26T14:21:13;13.50;99.90
2579;DHT22;1299;48.282;14.398;2023-03-26T14:24:29;13.40;99.90
2579;DHT22;1299;48.282;14.398;2023-03-26T14:27:16;13.40;99.90
2579;DHT22;1299;48.282;14.398;2023-03-26T14:30:36;13.40;99.90
2579;DHT22;1299;48.282;14.398;2023-03-26T14:33:39;13.30;99.90
2579;DHT22;1299;48.282;14.398;2023-03-26T14:36:15;13.40;99.90
2579;DHT22;1299;48.282;14.398;2023-03-26T14:42:04;13.80;99.90
2579;DHT22;1299;48.282;14.398;2023-03-26T14:44:59;13.70;99.90
2579;DHT22;1299;48.282;14.398;2023-03-26T14:47:36;13.80;99.90
2579;DHT22;1299;48.282;14.398;2023-03-26T14:50:35;13.90;99.90
2579;DHT22;1299;48.282;14.398;2023-03-26T14:53:17;13.90;99.90
2579;DHT22;1299;48.282;14.398;2023-03-26T14:59:07;13.90;99.90
2579;DHT22;1299;48.282;14.398;2023-03-26T15:11:22;13.60;99.90
2579;DHT22;1299;48.282;14.398;2023-03-26T15:14:17;13.60;99.90
2579;DHT22;1299;48.282;14.398;2023-03-26T15:17:26;13.50;99.90
2579;DHT22;1299;48.282;14.398;2023-03-26T15:30:20;13.10;99.90
2579;DHT22;1299;48.282;14.398;2023-03-26T15:33:13;13.30;99.90
2579;DHT22;1299;48.282;14.398;2023-03-26T15:36:07;13.10;99.90
2579;DHT22;1299;48.282;14.398;2023-03-26T15:39:05;13.00;99.90
2579;DHT22;1299;48.282;14.398;2023-03-26T15:41:43;12.90;99.90
2579;DHT22;1299;48.282;14.398;2023-03-26T15:44:40;12.80;99.90
2579;DHT22;1299;48.282;14.398;2023-03-26T15:47:50;12.70;99.90
2579;DHT22;1299;48.282;14.398;2023-03-26T15:50:34;12.80;99.90
2579;DHT22;1299;48.282;14.398;2023-03-26T15:53:16;12.90;99.90
2579;DHT22;1299;48.282;14.398;2023-03-26T15:56:12;12.70;99.90
2579;DHT22;1299;48.282;14.398;2023-03-26T15:58:49;12.80;99.90
2579;DHT22;1299;48.282;14.398;2023-03-26T16:01:29;12.60;99.90
2579;DHT22;1299;48.282;14.398;2023-03-26T16:04:10;12.60;99.90
2579;DHT22;1299;48.282;14.398;2023-03-26T16:06:47;12.60;99.90
2579;DHT22;1299;48.282;14.398;2023-03-26T16:09:32;12.40;99.90
2579;DHT22;1299;48.282;14.398;2023-03-26T16:12:28;12.50;99.90
2579;DHT22;1299;48.282;14.398;2023-03-26T16:15:25;12.70;99.90
2579;DHT22;1299;48.282;14.398;2023-03-26T16:21:01;12.80;99.90
2579;DHT22;1299;48.282;14.398;2023-03-26T16:23:33;12.70;99.90
2579;DHT22;1299;48.282;14.398;2023-03-26T16:26:17;12.70;99.90
2579;DHT22;1299;48.282;14.398;2023-03-26T16:32:14;12.70;99.90
2579;DHT22;1299;48.282;14.398;2023-03-26T16:34:48;12.70;99.90
2579;DHT22;1299;48.282;14.398;2023-03-26T16:37:49;12.80;99.90
2579;DHT22;1299;48.282;14.398;2023-03-26T16:40:35;12.70;99.90
2579;DHT22;1299;48.282;14.398;2023-03-26T16:43:40;12.80;99.90
2579;DHT22;1299;48.282;14.398;2023-03-26T16:46:20;12.70;99.90
2579;DHT22;1299;48.282;14.398;2023-03-26T16:48:59;12.60;99.90
2579;DHT22;1299;48.282;14.398;2023-03-26T16:51:49;12.60;99.90
2579;DHT22;1299;48.282;14.398;2023-03-26T16:54:24;12.50;99.90
2579;DHT22;1299;48.282;14.398;2023-03-26T16:57:04;12.70;99.90
2579;DHT22;1299;48.282;14.398;2023-03-26T17:02:56;12.60;99.90
2579;DHT22;1299;48.282;14.398;2023-03-26T17:05:42;12.50;99.90
2579;DHT22;1299;48.282;14.398;2023-03-26T17:08:17;12.60;99.90
2579;DHT22;1299;48.282;14.398;2023-03-26T17:10:55;12.60;99.90
2579;DHT22;1299;48.282;14.398;2023-03-26T17:13:31;12.50;99.90
2579;DHT22;1299;48.282;14.398;2023-03-26T17:16:10;12.50;99.90
2579;DHT22;1299;48.282;14.398;2023-03-26T17:18:46;12.60;99.90
2579;DHT22;1299;48.282;14.398;2023-03-26T17:21:22;12.50;99.90
2579;DHT22;1299;48.282;14.398;2023-03-26T17:24:02;12.20;99.90
2579;DHT22;1299;48.282;14.398;2023-03-26T17:26:42;12.20;99.90
2579;DHT22;1299;48.282;14.398;2023-03-26T17:29:24;12.20;99.90
2579;DHT22;1299;48.282;14.398;2023-03-26T17:32:01;12.20;99.90
2579;DHT22;1299;48.282;14.398;2023-03-26T17:34:52;12.10;99.90
2579;DHT22;1299;48.282;14.398;2023-03-26T17:37:42;12.10;99.90
2579;DHT22;1299;48.282;14.398;2023-03-26T17:40:46;12.00;99.90
2579;DHT22;1299;48.282;14.398;2023-03-26T17:43:44;12.10;99.90
2579;DHT22;1299;48.282;14.398;2023-03-26T17:49:12;12.10;99.90
2579;DHT22;1299;48.282;14.398;2023-03-26T17:51:47;12.20;99.90
2579;DHT22;1299;48.282;14.398;2023-03-26T17:54:24;12.00;99.90
2579;DHT22;1299;48.282;14.398;2023-03-26T17:56:55;12.00;99.90